sensor_id;sensor_type;location;lat;lon;timestamp;P1;durP1;ratioP1;P2;durP2;ratioP2
10880;SDS011;5493;48.884;8.338;2024-02-28T00:00:52;14.97;;;8.00;;
10880;SDS011;5493;48.884;8.338;2024-02-28T00:03:18;12.23;;;8.47;;
10880;SDS011;5493;48.884;8.338;2024-02-28T00:05:46;14.23;;;7.70;;
10880;SDS011;5493;48.884;8.338;2024-02-28T00:08:14;14.90;;;7.67;;
10880;SDS011;5493;48.884;8.338;2024-02-28T00:10:42;14.73;;;8.17;;
10880;SDS011;5493;48.884;8.338;2024-02-28T00:13:08;13.73;;;7.97;;
10880;SDS011;5493;48.884;8.338;2024-02-28T00:15:35;13.20;;;8.00;;
10880;SDS011;5493;48.884;8.338;2024-02-28T00:18:01;11.43;;;7.90;;
10880;SDS011;5493;48.884;8.338;2024-02-28T00:20:28;14.77;;;7.53;;
10880;SDS011;5493;48.884;8.338;2024-02-28T00:22:55;13.53;;;8.60;;
10880;SDS011;5493;48.884;8.338;2024-02-28T00:25:23;13.97;;;8.17;;
10880;SDS011;5493;48.884;8.338;2024-02-28T00:27:49;15.07;;;7.80;;
10880;SDS011;5493;48.884;8.338;2024-02-28T00:30:16;14.13;;;8.10;;
10880;SDS011;5493;48.884;8.338;2024-02-28T00:32:43;13.87;;;8.47;;
10880;SDS011;5493;48.884;8.338;2024-02-28T00:35:09;13.23;;;7.57;;
10880;SDS011;5493;48.884;8.338;2024-02-28T00:37:36;16.20;;;8.67;;
10880;SDS011;5493;48.884;8.338;2024-02-28T00:40:03;12.80;;;7.80;;
10880;SDS011;5493;48.884;8.338;2024-02-28T00:42:31;14.17;;;7.37;;
10880;SDS011;5493;48.884;8.338;2024-02-28T00:44:58;14.10;;;7.63;;
10880;SDS011;5493;48.884;8.338;2024-02-28T00:47:24;12.50;;;8.23;;
10880;SDS011;5493;48.884;8.338;2024-02-28T00:49:51;13.27;;;8.17;;
10880;SDS011;5493;48.884;8.338;2024-02-28T00:52:18;15.00;;;8.50;;
10880;SDS011;5493;48.884;8.338;2024-02-28T00:54:44;13.17;;;7.70;;
10880;SDS011;5493;48.884;8.338;2024-02-28T00:57:11;15.43;;;8.17;;
10880;SDS011;5493;48.884;8.338;2024-02-28T00:59:39;13.57;;;8.03;;
10880;SDS011;5493;48.884;8.338;2024-02-28T01:02:05;12.33;;;7.90;;
10880;SDS011;5493;48.884;8.338;2024-02-28T01:04:32;14.60;;;8.10;;
10880;SDS011;5493;48.884;8.338;2024-02-28T01:06:58;12.60;;;7.90;;
10880;SDS011;5493;48.884;8.338;2024-02-28T01:09:26;12.10;;;7.03;;
10880;SDS011;5493;48.884;8.338;2024-02-28T01:11:52;12.53;;;7.40;;
10880;SDS011;5493;48.884;8.338;2024-02-28T01:14:19;14.30;;;7.90;;
10880;SDS011;5493;48.884;8.338;2024-02-28T01:16:47;17.00;;;8.33;;
10880;SDS011;5493;48.884;8.338;2024-02-28T01:19:15;12.57;;;7.10;;
10880;SDS011;5493;48.884;8.338;2024-02-28T01:21:42;13.07;;;7.93;;
10880;SDS011;5493;48.884;8.338;2024-02-28T01:24:08;15.27;;;8.27;;
10880;SDS011;5493;48.884;8.338;2024-02-28T01:26:35;13.50;;;7.67;;
10880;SDS011;5493;48.884;8.338;2024-02-28T01:29:01;13.53;;;8.23;;
10880;SDS011;5493;48.884;8.338;2024-02-28T01:31:28;14.67;;;8.03;;
10880;SDS011;5493;48.884;8.338;2024-02-28T01:33:56;12.57;;;8.43;;
10880;SDS011;5493;48.884;8.338;2024-02-28T01:36:23;12.10;;;7.10;;
10880;SDS011;5493;48.884;8.338;2024-02-28T01:38:51;13.70;;;7.83;;
10880;SDS011;5493;48.884;8.338;2024-02-28T01:41:17;14.27;;;8.40;;
10880;SDS011;5493;48.884;8.338;2024-02-28T01:43:44;14.43;;;8.37;;
10880;SDS011;5493;48.884;8.338;2024-02-28T01:46:13;15.23;;;8.63;;
10880;SDS011;5493;48.884;8.338;2024-02-28T01:48:47;13.57;;;8.03;;
10880;SDS011;5493;48.884;8.338;2024-02-28T01:51:15;16.20;;;9.07;;
10880;SDS011;5493;48.884;8.338;2024-02-28T01:53:42;13.90;;;7.47;;
10880;SDS011;5493;48.884;8.338;2024-02-28T01:56:09;13.90;;;8.03;;
10880;SDS011;5493;48.884;8.338;2024-02-28T01:58:36;15.63;;;8.17;;
10880;SDS011;5493;48.884;8.338;2024-02-28T02:01:03;14.63;;;8.37;;
10880;SDS011;5493;48.884;8.338;2024-02-28T02:03:31;15.30;;;7.70;;
10880;SDS011;5493;48.884;8.338;2024-02-28T02:05:59;15.30;;;8.60;;
10880;SDS011;5493;48.884;8.338;2024-02-28T02:08:27;15.10;;;8.27;;
10880;SDS011;5493;48.884;8.338;2024-02-28T02:10:54;13.00;;;8.10;;
10880;SDS011;5493;48.884;8.338;2024-02-28T02:13:21;12.80;;;7.93;;
10880;SDS011;5493;48.884;8.338;2024-02-28T02:15:48;12.77;;;8.30;;
10880;SDS011;5493;48.884;8.338;2024-02-28T02:18:14;15.30;;;8.07;;
10880;SDS011;5493;48.884;8.338;2024-02-28T02:20:41;13.83;;;8.00;;
10880;SDS011;5493;48.884;8.338;2024-02-28T02:23:11;16.37;;;7.70;;
10880;SDS011;5493;48.884;8.338;2024-02-28T02:25:43;12.17;;;7.87;;
10880;SDS011;5493;48.884;8.338;2024-02-28T02:28:10;15.60;;;6.93;;
10880;SDS011;5493;48.884;8.338;2024-02-28T02:30:37;14.00;;;7.90;;
10880;SDS011;5493;48.884;8.338;2024-02-28T02:33:04;12.77;;;7.17;;
10880;SDS011;5493;48.884;8.338;2024-02-28T02:35:31;13.13;;;7.33;;
10880;SDS011;5493;48.884;8.338;2024-02-28T02:37:57;13.13;;;6.87;;
10880;SDS011;5493;48.884;8.338;2024-02-28T02:40:28;13.50;;;7.57;;
10880;SDS011;5493;48.884;8.338;2024-02-28T02:42:55;11.97;;;6.53;;
10880;SDS011;5493;48.884;8.338;2024-02-28T02:45:21;12.53;;;6.77;;
10880;SDS011;5493;48.884;8.338;2024-02-28T02:47:48;14.73;;;7.20;;
10880;SDS011;5493;48.884;8.338;2024-02-28T02:50:14;13.77;;;7.63;;
10880;SDS011;5493;48.884;8.338;2024-02-28T02:52:41;14.17;;;7.53;;
10880;SDS011;5493;48.884;8.338;2024-02-28T02:55:08;17.93;;;8.57;;
10880;SDS011;5493;48.884;8.338;2024-02-28T02:57:36;16.17;;;8.33;;
10880;SDS011;5493;48.884;8.338;2024-02-28T03:00:03;12.20;;;7.17;;
10880;SDS011;5493;48.884;8.338;2024-02-28T03:02:30;14.17;;;6.87;;
10880;SDS011;5493;48.884;8.338;2024-02-28T03:04:57;17.73;;;7.97;;
10880;SDS011;5493;48.884;8.338;2024-02-28T03:07:23;14.90;;;8.13;;
10880;SDS011;5493;48.884;8.338;2024-02-28T03:09:50;13.03;;;7.63;;
10880;SDS011;5493;48.884;8.338;2024-02-28T03:12:16;15.03;;;8.73;;
10880;SDS011;5493;48.884;8.338;2024-02-28T03:14:44;15.33;;;8.50;;
10880;SDS011;5493;48.884;8.338;2024-02-28T03:17:11;13.53;;;8.50;;
10880;SDS011;5493;48.884;8.338;2024-02-28T03:19:37;13.87;;;7.27;;
10880;SDS011;5493;48.884;8.338;2024-02-28T03:22:04;17.07;;;8.37;;
10880;SDS011;5493;48.884;8.338;2024-02-28T03:24:31;15.23;;;8.60;;
10880;SDS011;5493;48.884;8.338;2024-02-28T03:27:00;17.80;;;8.83;;
10880;SDS011;5493;48.884;8.338;2024-02-28T03:29:26;16.03;;;8.10;;
10880;SDS011;5493;48.884;8.338;2024-02-28T03:31:54;16.33;;;8.17;;
10880;SDS011;5493;48.884;8.338;2024-02-28T03:34:21;18.23;;;9.77;;
10880;SDS011;5493;48.884;8.338;2024-02-28T03:36:47;19.30;;;8.80;;
10880;SDS011;5493;48.884;8.338;2024-02-28T03:39:14;19.77;;;9.80;;
10880;SDS011;5493;48.884;8.338;2024-02-28T03:41:41;18.87;;;9.40;;
10880;SDS011;5493;48.884;8.338;2024-02-28T03:44:07;18.07;;;8.80;;
10880;SDS011;5493;48.884;8.338;2024-02-28T03:46:34;19.17;;;8.80;;
10880;SDS011;5493;48.884;8.338;2024-02-28T03:49:01;17.00;;;8.87;;
10880;SDS011;5493;48.884;8.338;2024-02-28T03:51:28;14.73;;;9.00;;
10880;SDS011;5493;48.884;8.338;2024-02-28T03:53:55;19.23;;;9.53;;
10880;SDS011;5493;48.884;8.338;2024-02-28T03:56:22;17.50;;;9.33;;
10880;SDS011;5493;48.884;8.338;2024-02-28T03:58:49;21.07;;;10.20;;
10880;SDS011;5493;48.884;8.338;2024-02-28T04:01:16;19.27;;;9.80;;
10880;SDS011;5493;48.884;8.338;2024-02-28T04:03:42;17.30;;;8.33;;
10880;SDS011;5493;48.884;8.338;2024-02-28T04:06:10;19.03;;;9.87;;
10880;SDS011;5493;48.884;8.338;2024-02-28T04:08:37;15.53;;;8.43;;
10880;SDS011;5493;48.884;8.338;2024-02-28T04:11:04;16.50;;;9.13;;
10880;SDS011;5493;48.884;8.338;2024-02-28T04:13:30;18.90;;;9.80;;
10880;SDS011;5493;48.884;8.338;2024-02-28T04:15:57;19.13;;;9.80;;
10880;SDS011;5493;48.884;8.338;2024-02-28T04:18:23;18.77;;;10.40;;
10880;SDS011;5493;48.884;8.338;2024-02-28T04:20:50;18.57;;;10.13;;
10880;SDS011;5493;48.884;8.338;2024-02-28T04:23:18;20.30;;;9.90;;
10880;SDS011;5493;48.884;8.338;2024-02-28T04:25:44;18.97;;;9.67;;
10880;SDS011;5493;48.884;8.338;2024-02-28T04:28:11;20.53;;;10.70;;
10880;SDS011;5493;48.884;8.338;2024-02-28T04:30:37;16.30;;;9.23;;
10880;SDS011;5493;48.884;8.338;2024-02-28T04:33:04;17.00;;;8.77;;
10880;SDS011;5493;48.884;8.338;2024-02-28T04:35:30;17.63;;;9.27;;
10880;SDS011;5493;48.884;8.338;2024-02-28T04:37:57;18.97;;;10.03;;
10880;SDS011;5493;48.884;8.338;2024-02-28T04:40:25;18.07;;;9.97;;
10880;SDS011;5493;48.884;8.338;2024-02-28T04:42:51;19.90;;;10.10;;
10880;SDS011;5493;48.884;8.338;2024-02-28T04:45:18;17.57;;;9.10;;
10880;SDS011;5493;48.884;8.338;2024-02-28T04:47:44;17.73;;;9.80;;
10880;SDS011;5493;48.884;8.338;2024-02-28T04:50:11;21.73;;;10.57;;
10880;SDS011;5493;48.884;8.338;2024-02-28T04:52:38;15.67;;;9.33;;
10880;SDS011;5493;48.884;8.338;2024-02-28T04:55:04;18.57;;;10.17;;
10880;SDS011;5493;48.884;8.338;2024-02-28T04:57:33;18.47;;;9.50;;
10880;SDS011;5493;48.884;8.338;2024-02-28T04:59:59;17.33;;;9.30;;
10880;SDS011;5493;48.884;8.338;2024-02-28T05:02:26;19.23;;;9.40;;
10880;SDS011;5493;48.884;8.338;2024-02-28T05:04:52;19.33;;;10.53;;
10880;SDS011;5493;48.884;8.338;2024-02-28T05:07:19;17.30;;;9.40;;
10880;SDS011;5493;48.884;8.338;2024-02-28T05:09:45;18.27;;;9.53;;
10880;SDS011;5493;48.884;8.338;2024-02-28T05:12:12;16.07;;;9.23;;
10880;SDS011;5493;48.884;8.338;2024-02-28T05:14:40;19.23;;;10.17;;
10880;SDS011;5493;48.884;8.338;2024-02-28T05:17:06;17.97;;;9.63;;
10880;SDS011;5493;48.884;8.338;2024-02-28T05:19:33;16.07;;;9.23;;
10880;SDS011;5493;48.884;8.338;2024-02-28T05:21:59;20.07;;;10.50;;
10880;SDS011;5493;48.884;8.338;2024-02-28T05:24:26;18.33;;;10.10;;
10880;SDS011;5493;48.884;8.338;2024-02-28T05:26:53;18.50;;;9.23;;
10880;SDS011;5493;48.884;8.338;2024-02-28T05:29:19;16.30;;;8.40;;
10880;SDS011;5493;48.884;8.338;2024-02-28T05:31:47;18.73;;;8.37;;
10880;SDS011;5493;48.884;8.338;2024-02-28T05:34:14;17.57;;;9.57;;
10880;SDS011;5493;48.884;8.338;2024-02-28T05:36:41;18.33;;;9.23;;
10880;SDS011;5493;48.884;8.338;2024-02-28T05:39:08;14.97;;;8.90;;
10880;SDS011;5493;48.884;8.338;2024-02-28T05:41:34;17.10;;;8.67;;
10880;SDS011;5493;48.884;8.338;2024-02-28T05:44:01;15.57;;;8.27;;
10880;SDS011;5493;48.884;8.338;2024-02-28T05:46:27;19.97;;;9.37;;
10880;SDS011;5493;48.884;8.338;2024-02-28T05:48:55;14.20;;;7.93;;
10880;SDS011;5493;48.884;8.338;2024-02-28T05:51:21;17.47;;;9.33;;
10880;SDS011;5493;48.884;8.338;2024-02-28T05:53:48;17.27;;;9.00;;
10880;SDS011;5493;48.884;8.338;2024-02-28T05:56:15;17.33;;;9.03;;
10880;SDS011;5493;48.884;8.338;2024-02-28T05:58:44;18.00;;;9.10;;
10880;SDS011;5493;48.884;8.338;2024-02-28T06:01:12;16.83;;;9.53;;
10880;SDS011;5493;48.884;8.338;2024-02-28T06:03:41;15.10;;;8.97;;
10880;SDS011;5493;48.884;8.338;2024-02-28T06:06:09;17.83;;;9.63;;
10880;SDS011;5493;48.884;8.338;2024-02-28T06:08:37;16.07;;;8.43;;
10880;SDS011;5493;48.884;8.338;2024-02-28T06:11:05;15.43;;;8.57;;
10880;SDS011;5493;48.884;8.338;2024-02-28T06:13:32;15.73;;;8.30;;
10880;SDS011;5493;48.884;8.338;2024-02-28T06:15:59;14.93;;;8.27;;
10880;SDS011;5493;48.884;8.338;2024-02-28T06:18:26;17.77;;;8.90;;
10880;SDS011;5493;48.884;8.338;2024-02-28T06:20:52;14.27;;;8.27;;
10880;SDS011;5493;48.884;8.338;2024-02-28T06:23:21;14.50;;;8.27;;
10880;SDS011;5493;48.884;8.338;2024-02-28T06:25:49;16.67;;;8.30;;
10880;SDS011;5493;48.884;8.338;2024-02-28T06:28:16;19.57;;;9.30;;
10880;SDS011;5493;48.884;8.338;2024-02-28T06:30:42;13.67;;;8.67;;
10880;SDS011;5493;48.884;8.338;2024-02-28T06:33:09;17.10;;;8.63;;
10880;SDS011;5493;48.884;8.338;2024-02-28T06:35:35;17.97;;;9.67;;
10880;SDS011;5493;48.884;8.338;2024-02-28T06:38:02;20.17;;;8.40;;
10880;SDS011;5493;48.884;8.338;2024-02-28T06:40:30;15.23;;;8.47;;
10880;SDS011;5493;48.884;8.338;2024-02-28T06:42:56;19.67;;;9.07;;
10880;SDS011;5493;48.884;8.338;2024-02-28T06:45:23;15.60;;;8.73;;
10880;SDS011;5493;48.884;8.338;2024-02-28T06:47:50;16.60;;;8.03;;
10880;SDS011;5493;48.884;8.338;2024-02-28T06:50:16;17.97;;;8.07;;
10880;SDS011;5493;48.884;8.338;2024-02-28T06:52:43;18.43;;;8.67;;
10880;SDS011;5493;48.884;8.338;2024-02-28T06:55:10;14.87;;;7.70;;
10880;SDS011;5493;48.884;8.338;2024-02-28T06:57:39;15.70;;;8.13;;
10880;SDS011;5493;48.884;8.338;2024-02-28T07:00:07;14.07;;;7.90;;
10880;SDS011;5493;48.884;8.338;2024-02-28T07:02:35;16.27;;;8.07;;
10880;SDS011;5493;48.884;8.338;2024-02-28T07:05:01;14.27;;;7.63;;
10880;SDS011;5493;48.884;8.338;2024-02-28T07:07:29;15.90;;;8.43;;
10880;SDS011;5493;48.884;8.338;2024-02-28T07:09:56;14.80;;;8.43;;
10880;SDS011;5493;48.884;8.338;2024-02-28T07:12:22;15.97;;;8.03;;
10880;SDS011;5493;48.884;8.338;2024-02-28T07:14:51;17.40;;;9.17;;
10880;SDS011;5493;48.884;8.338;2024-02-28T07:17:17;18.93;;;8.90;;
10880;SDS011;5493;48.884;8.338;2024-02-28T07:19:44;15.17;;;8.07;;
10880;SDS011;5493;48.884;8.338;2024-02-28T07:22:10;16.93;;;10.00;;
10880;SDS011;5493;48.884;8.338;2024-02-28T07:24:37;17.97;;;10.20;;
10880;SDS011;5493;48.884;8.338;2024-02-28T07:27:03;16.93;;;8.67;;
10880;SDS011;5493;48.884;8.338;2024-02-28T07:29:30;22.60;;;10.63;;
10880;SDS011;5493;48.884;8.338;2024-02-28T07:31:58;18.57;;;10.50;;
10880;SDS011;5493;48.884;8.338;2024-02-28T07:34:27;19.83;;;10.00;;
10880;SDS011;5493;48.884;8.338;2024-02-28T07:36:54;20.10;;;10.00;;
10880;SDS011;5493;48.884;8.338;2024-02-28T07:39:20;21.23;;;11.63;;
10880;SDS011;5493;48.884;8.338;2024-02-28T07:41:47;18.97;;;10.93;;
10880;SDS011;5493;48.884;8.338;2024-02-28T07:44:13;20.50;;;11.70;;
10880;SDS011;5493;48.884;8.338;2024-02-28T07:46:40;20.27;;;11.17;;
10880;SDS011;5493;48.884;8.338;2024-02-28T07:49:08;23.80;;;11.97;;
10880;SDS011;5493;48.884;8.338;2024-02-28T07:51:36;21.10;;;10.23;;
10880;SDS011;5493;48.884;8.338;2024-02-28T07:54:02;19.17;;;10.30;;
10880;SDS011;5493;48.884;8.338;2024-02-28T07:56:29;22.17;;;11.03;;
10880;SDS011;5493;48.884;8.338;2024-02-28T07:58:56;25.07;;;13.50;;
10880;SDS011;5493;48.884;8.338;2024-02-28T08:01:22;26.83;;;12.83;;
10880;SDS011;5493;48.884;8.338;2024-02-28T08:03:49;26.90;;;13.23;;
10880;SDS011;5493;48.884;8.338;2024-02-28T08:06:17;25.90;;;13.57;;
10880;SDS011;5493;48.884;8.338;2024-02-28T08:08:43;23.50;;;12.87;;
10880;SDS011;5493;48.884;8.338;2024-02-28T08:11:11;23.23;;;12.90;;
10880;SDS011;5493;48.884;8.338;2024-02-28T08:13:38;25.60;;;14.73;;
10880;SDS011;5493;48.884;8.338;2024-02-28T08:16:04;25.37;;;12.40;;
10880;SDS011;5493;48.884;8.338;2024-02-28T08:18:34;27.20;;;14.17;;
10880;SDS011;5493;48.884;8.338;2024-02-28T08:21:03;23.83;;;13.63;;
10880;SDS011;5493;48.884;8.338;2024-02-28T08:23:32;25.20;;;13.63;;
10880;SDS011;5493;48.884;8.338;2024-02-28T08:25:58;28.27;;;13.23;;
10880;SDS011;5493;48.884;8.338;2024-02-28T08:28:25;28.07;;;14.30;;
10880;SDS011;5493;48.884;8.338;2024-02-28T08:30:51;25.70;;;13.63;;
10880;SDS011;5493;48.884;8.338;2024-02-28T08:33:18;26.67;;;13.73;;
10880;SDS011;5493;48.884;8.338;2024-02-28T08:35:44;26.93;;;14.73;;
10880;SDS011;5493;48.884;8.338;2024-02-28T08:38:11;26.40;;;13.90;;
10880;SDS011;5493;48.884;8.338;2024-02-28T08:40:39;24.37;;;13.57;;
10880;SDS011;5493;48.884;8.338;2024-02-28T08:43:06;26.23;;;13.13;;
10880;SDS011;5493;48.884;8.338;2024-02-28T08:45:32;27.80;;;13.73;;
10880;SDS011;5493;48.884;8.338;2024-02-28T08:47:59;24.90;;;13.80;;
10880;SDS011;5493;48.884;8.338;2024-02-28T08:50:26;27.07;;;13.53;;
10880;SDS011;5493;48.884;8.338;2024-02-28T08:52:53;31.30;;;15.17;;
10880;SDS011;5493;48.884;8.338;2024-02-28T08:55:19;25.57;;;14.73;;
10880;SDS011;5493;48.884;8.338;2024-02-28T08:57:48;24.63;;;13.93;;
10880;SDS011;5493;48.884;8.338;2024-02-28T09:00:15;25.50;;;13.93;;
10880;SDS011;5493;48.884;8.338;2024-02-28T09:02:42;24.97;;;13.73;;
10880;SDS011;5493;48.884;8.338;2024-02-28T09:05:09;25.07;;;13.53;;
10880;SDS011;5493;48.884;8.338;2024-02-28T09:07:35;25.40;;;13.70;;
10880;SDS011;5493;48.884;8.338;2024-02-28T09:10:03;26.07;;;14.47;;
10880;SDS011;5493;48.884;8.338;2024-02-28T09:12:29;26.47;;;15.73;;
10880;SDS011;5493;48.884;8.338;2024-02-28T09:14:57;21.27;;;13.07;;
10880;SDS011;5493;48.884;8.338;2024-02-28T09:17:24;21.13;;;12.07;;
10880;SDS011;5493;48.884;8.338;2024-02-28T09:19:52;25.37;;;13.30;;
10880;SDS011;5493;48.884;8.338;2024-02-28T09:22:19;24.03;;;13.50;;
10880;SDS011;5493;48.884;8.338;2024-02-28T09:24:46;27.30;;;15.47;;
10880;SDS011;5493;48.884;8.338;2024-02-28T09:27:13;27.80;;;14.00;;
10880;SDS011;5493;48.884;8.338;2024-02-28T09:29:39;19.93;;;10.13;;
10880;SDS011;5493;48.884;8.338;2024-02-28T09:32:07;20.57;;;11.27;;
10880;SDS011;5493;48.884;8.338;2024-02-28T09:34:34;20.97;;;12.33;;
10880;SDS011;5493;48.884;8.338;2024-02-28T09:37:01;23.73;;;12.90;;
10880;SDS011;5493;48.884;8.338;2024-02-28T09:39:29;20.80;;;11.63;;
10880;SDS011;5493;48.884;8.338;2024-02-28T09:41:55;19.03;;;12.00;;
10880;SDS011;5493;48.884;8.338;2024-02-28T09:44:24;21.73;;;12.57;;
10880;SDS011;5493;48.884;8.338;2024-02-28T09:46:51;22.73;;;13.33;;
10880;SDS011;5493;48.884;8.338;2024-02-28T09:49:20;21.27;;;12.80;;
10880;SDS011;5493;48.884;8.338;2024-02-28T09:51:48;24.37;;;13.97;;
10880;SDS011;5493;48.884;8.338;2024-02-28T09:54:15;27.73;;;14.93;;
10880;SDS011;5493;48.884;8.338;2024-02-28T09:56:42;23.13;;;13.47;;
10880;SDS011;5493;48.884;8.338;2024-02-28T09:59:09;20.50;;;12.40;;
10880;SDS011;5493;48.884;8.338;2024-02-28T10:01:37;22.63;;;12.87;;
10880;SDS011;5493;48.884;8.338;2024-02-28T10:04:08;21.70;;;12.23;;
10880;SDS011;5493;48.884;8.338;2024-02-28T10:06:39;20.50;;;11.20;;
10880;SDS011;5493;48.884;8.338;2024-02-28T10:09:06;20.67;;;11.93;;
10880;SDS011;5493;48.884;8.338;2024-02-28T10:11:35;22.17;;;11.63;;
10880;SDS011;5493;48.884;8.338;2024-02-28T10:14:02;19.37;;;12.63;;
10880;SDS011;5493;48.884;8.338;2024-02-28T10:16:29;21.87;;;12.40;;
10880;SDS011;5493;48.884;8.338;2024-02-28T10:18:55;21.30;;;13.30;;
10880;SDS011;5493;48.884;8.338;2024-02-28T10:21:22;18.33;;;12.33;;
10880;SDS011;5493;48.884;8.338;2024-02-28T10:23:50;20.80;;;12.13;;
10880;SDS011;5493;48.884;8.338;2024-02-28T10:26:17;21.30;;;12.10;;
10880;SDS011;5493;48.884;8.338;2024-02-28T10:28:43;22.63;;;12.50;;
10880;SDS011;5493;48.884;8.338;2024-02-28T10:31:10;21.27;;;12.37;;
10880;SDS011;5493;48.884;8.338;2024-02-28T10:33:41;18.27;;;11.57;;
10880;SDS011;5493;48.884;8.338;2024-02-28T10:36:08;19.20;;;11.60;;
10880;SDS011;5493;48.884;8.338;2024-02-28T10:38:36;20.30;;;12.43;;
10880;SDS011;5493;48.884;8.338;2024-02-28T10:41:04;19.17;;;11.20;;
10880;SDS011;5493;48.884;8.338;2024-02-28T10:43:31;19.47;;;10.40;;
10880;SDS011;5493;48.884;8.338;2024-02-28T10:46:00;18.37;;;10.97;;
10880;SDS011;5493;48.884;8.338;2024-02-28T10:48:27;18.67;;;11.40;;
10880;SDS011;5493;48.884;8.338;2024-02-28T10:50:54;21.63;;;12.17;;
10880;SDS011;5493;48.884;8.338;2024-02-28T10:53:21;18.20;;;11.47;;
10880;SDS011;5493;48.884;8.338;2024-02-28T10:55:49;17.97;;;11.37;;
10880;SDS011;5493;48.884;8.338;2024-02-28T10:58:23;18.10;;;10.63;;
10880;SDS011;5493;48.884;8.338;2024-02-28T11:00:51;16.13;;;10.67;;
10880;SDS011;5493;48.884;8.338;2024-02-28T11:03:18;18.17;;;10.83;;
10880;SDS011;5493;48.884;8.338;2024-02-28T11:05:45;15.77;;;10.10;;
10880;SDS011;5493;48.884;8.338;2024-02-28T11:08:19;17.00;;;10.97;;
10880;SDS011;5493;48.884;8.338;2024-02-28T11:10:47;15.73;;;9.83;;
10880;SDS011;5493;48.884;8.338;2024-02-28T11:13:24;14.03;;;9.20;;
10880;SDS011;5493;48.884;8.338;2024-02-28T11:15:52;13.97;;;9.33;;
10880;SDS011;5493;48.884;8.338;2024-02-28T11:18:20;16.63;;;11.20;;
10880;SDS011;5493;48.884;8.338;2024-02-28T11:20:47;15.83;;;10.70;;
10880;SDS011;5493;48.884;8.338;2024-02-28T11:23:16;15.57;;;11.57;;
10880;SDS011;5493;48.884;8.338;2024-02-28T11:25:43;13.13;;;9.65;;
10880;SDS011;5493;48.884;8.338;2024-02-28T11:28:10;11.95;;;9.68;;
10880;SDS011;5493;48.884;8.338;2024-02-28T11:30:38;11.70;;;8.95;;
10880;SDS011;5493;48.884;8.338;2024-02-28T11:33:04;11.68;;;8.88;;
10880;SDS011;5493;48.884;8.338;2024-02-28T11:35:33;12.30;;;9.50;;
10880;SDS011;5493;48.884;8.338;2024-02-28T11:37:59;13.95;;;10.27;;
10880;SDS011;5493;48.884;8.338;2024-02-28T11:40:26;11.30;;;9.43;;
10880;SDS011;5493;48.884;8.338;2024-02-28T11:42:53;11.40;;;8.63;;
10880;SDS011;5493;48.884;8.338;2024-02-28T11:45:21;10.55;;;8.45;;
10880;SDS011;5493;48.884;8.338;2024-02-28T11:47:49;11.10;;;8.90;;
10880;SDS011;5493;48.884;8.338;2024-02-28T11:50:15;9.93;;;8.27;;
10880;SDS011;5493;48.884;8.338;2024-02-28T11:52:43;10.63;;;8.60;;
10880;SDS011;5493;48.884;8.338;2024-02-28T11:55:10;10.65;;;8.20;;
10880;SDS011;5493;48.884;8.338;2024-02-28T11:57:37;11.90;;;8.95;;
10880;SDS011;5493;48.884;8.338;2024-02-28T12:00:04;11.48;;;8.63;;
10880;SDS011;5493;48.884;8.338;2024-02-28T12:02:32;11.75;;;8.48;;
10880;SDS011;5493;48.884;8.338;2024-02-28T12:05:01;10.10;;;7.82;;
10880;SDS011;5493;48.884;8.338;2024-02-28T12:07:29;9.73;;;7.85;;
10880;SDS011;5493;48.884;8.338;2024-02-28T12:09:55;12.15;;;9.15;;
10880;SDS011;5493;48.884;8.338;2024-02-28T12:12:22;11.48;;;8.60;;
10880;SDS011;5493;48.884;8.338;2024-02-28T12:14:49;10.55;;;8.20;;
10880;SDS011;5493;48.884;8.338;2024-02-28T12:17:16;10.50;;;8.13;;
10880;SDS011;5493;48.884;8.338;2024-02-28T12:19:44;9.43;;;7.63;;
10880;SDS011;5493;48.884;8.338;2024-02-28T12:22:11;10.70;;;8.30;;
10880;SDS011;5493;48.884;8.338;2024-02-28T12:24:38;11.10;;;8.77;;
10880;SDS011;5493;48.884;8.338;2024-02-28T12:27:04;11.75;;;8.35;;
10880;SDS011;5493;48.884;8.338;2024-02-28T12:29:31;11.02;;;8.18;;
10880;SDS011;5493;48.884;8.338;2024-02-28T12:31:57;11.15;;;8.45;;
10880;SDS011;5493;48.884;8.338;2024-02-28T12:34:24;11.20;;;8.60;;
10880;SDS011;5493;48.884;8.338;2024-02-28T12:36:51;11.25;;;8.52;;
10880;SDS011;5493;48.884;8.338;2024-02-28T12:39:20;12.60;;;8.55;;
10880;SDS011;5493;48.884;8.338;2024-02-28T12:41:47;11.30;;;8.65;;
10880;SDS011;5493;48.884;8.338;2024-02-28T12:44:14;10.15;;;7.85;;
10880;SDS011;5493;48.884;8.338;2024-02-28T12:46:40;10.88;;;7.97;;
10880;SDS011;5493;48.884;8.338;2024-02-28T12:49:07;10.30;;;7.47;;
10880;SDS011;5493;48.884;8.338;2024-02-28T12:51:38;9.90;;;7.78;;
10880;SDS011;5493;48.884;8.338;2024-02-28T12:54:06;11.40;;;8.18;;
10880;SDS011;5493;48.884;8.338;2024-02-28T12:56:35;10.10;;;7.65;;
10880;SDS011;5493;48.884;8.338;2024-02-28T12:59:01;10.52;;;7.55;;
10880;SDS011;5493;48.884;8.338;2024-02-28T13:01:28;8.70;;;6.78;;
10880;SDS011;5493;48.884;8.338;2024-02-28T13:03:55;9.80;;;7.20;;
10880;SDS011;5493;48.884;8.338;2024-02-28T13:06:22;9.63;;;7.38;;
10880;SDS011;5493;48.884;8.338;2024-02-28T13:08:48;9.80;;;7.15;;
10880;SDS011;5493;48.884;8.338;2024-02-28T13:11:17;8.00;;;6.90;;
10880;SDS011;5493;48.884;8.338;2024-02-28T13:13:46;8.57;;;6.95;;
10880;SDS011;5493;48.884;8.338;2024-02-28T13:16:13;10.27;;;7.72;;
10880;SDS011;5493;48.884;8.338;2024-02-28T13:18:39;8.50;;;6.88;;
10880;SDS011;5493;48.884;8.338;2024-02-28T13:21:06;8.50;;;6.70;;
10880;SDS011;5493;48.884;8.338;2024-02-28T13:23:33;10.80;;;6.70;;
10880;SDS011;5493;48.884;8.338;2024-02-28T13:25:59;8.65;;;6.85;;
10880;SDS011;5493;48.884;8.338;2024-02-28T13:28:26;9.80;;;7.40;;
10880;SDS011;5493;48.884;8.338;2024-02-28T13:30:56;7.47;;;6.38;;
10880;SDS011;5493;48.884;8.338;2024-02-28T13:33:23;8.85;;;6.53;;
10880;SDS011;5493;48.884;8.338;2024-02-28T13:35:50;7.72;;;6.90;;
10880;SDS011;5493;48.884;8.338;2024-02-28T13:38:16;10.63;;;6.50;;
10880;SDS011;5493;48.884;8.338;2024-02-28T13:40:43;7.72;;;6.30;;
10880;SDS011;5493;48.884;8.338;2024-02-28T13:43:10;7.95;;;6.13;;
10880;SDS011;5493;48.884;8.338;2024-02-28T13:45:37;8.27;;;6.78;;
10880;SDS011;5493;48.884;8.338;2024-02-28T13:48:14;8.98;;;5.57;;
10880;SDS011;5493;48.884;8.338;2024-02-28T13:50:43;8.20;;;5.82;;
10880;SDS011;5493;48.884;8.338;2024-02-28T13:53:10;7.90;;;6.18;;
10880;SDS011;5493;48.884;8.338;2024-02-28T13:55:37;7.35;;;6.03;;
10880;SDS011;5493;48.884;8.338;2024-02-28T13:58:04;7.28;;;5.32;;
10880;SDS011;5493;48.884;8.338;2024-02-28T14:00:31;9.02;;;6.22;;
10880;SDS011;5493;48.884;8.338;2024-02-28T14:02:57;8.60;;;6.15;;
10880;SDS011;5493;48.884;8.338;2024-02-28T14:05:25;10.13;;;7.30;;
10880;SDS011;5493;48.884;8.338;2024-02-28T14:07:52;7.60;;;5.93;;
10880;SDS011;5493;48.884;8.338;2024-02-28T14:10:18;7.22;;;5.88;;
10880;SDS011;5493;48.884;8.338;2024-02-28T14:12:47;8.02;;;5.95;;
10880;SDS011;5493;48.884;8.338;2024-02-28T14:15:17;7.32;;;5.80;;
10880;SDS011;5493;48.884;8.338;2024-02-28T14:17:44;7.78;;;5.47;;
10880;SDS011;5493;48.884;8.338;2024-02-28T14:20:10;9.23;;;6.00;;
10880;SDS011;5493;48.884;8.338;2024-02-28T14:22:39;7.53;;;5.82;;
10880;SDS011;5493;48.884;8.338;2024-02-28T14:25:07;6.68;;;5.35;;
10880;SDS011;5493;48.884;8.338;2024-02-28T14:27:36;7.72;;;5.32;;
10880;SDS011;5493;48.884;8.338;2024-02-28T14:30:04;8.35;;;5.75;;
10880;SDS011;5493;48.884;8.338;2024-02-28T14:32:33;8.48;;;5.35;;
10880;SDS011;5493;48.884;8.338;2024-02-28T14:35:00;7.20;;;5.22;;
10880;SDS011;5493;48.884;8.338;2024-02-28T14:37:27;8.60;;;5.68;;
10880;SDS011;5493;48.884;8.338;2024-02-28T14:39:55;8.30;;;5.43;;
10880;SDS011;5493;48.884;8.338;2024-02-28T14:42:22;7.75;;;5.35;;
10880;SDS011;5493;48.884;8.338;2024-02-28T14:44:49;7.70;;;5.00;;